sensor_id;sensor_type;location;lat;lon;timestamp;temperature;humidity
49224;DHT22;35050;51.316;5.994;2023-12-20T00:01:06;8.10;99.90
49224;DHT22;35050;51.316;5.994;2023-12-20T00:03:32;8.10;99.90
49224;DHT22;35050;51.316;5.994;2023-12-20T00:05:57;8.10;99.90
49224;DHT22;35050;51.316;5.994;2023-12-20T00:08:23;8.10;99.90
49224;DHT22;35050;51.316;5.994;2023-12-20T00:10:49;8.00;99.90
49224;DHT22;35050;51.316;5.994;2023-12-20T00:13:14;8.00;99.90
49224;DHT22;35050;51.316;5.994;2023-12-20T00:15:40;8.00;99.90
49224;DHT22;35050;51.316;5.994;2023-12-20T00:18:05;8.00;99.90
49224;DHT22;35050;51.316;5.994;2023-12-20T00:20:31;7.90;99.90
49224;DHT22;35050;51.316;5.994;2023-12-20T00:22:57;7.80;99.90
49224;DHT22;35050;51.316;5.994;2023-12-20T00:25:23;7.80;99.90
49224;DHT22;35050;51.316;5.994;2023-12-20T00:27:49;7.80;99.90
49224;DHT22;35050;51.316;5.994;2023-12-20T00:30:15;7.80;99.90
49224;DHT22;35050;51.316;5.994;2023-12-20T00:32:40;7.80;99.90
49224;DHT22;35050;51.316;5.994;2023-12-20T00:35:14;7.80;99.90
49224;DHT22;35050;51.316;5.994;2023-12-20T00:37:40;7.80;99.90
49224;DHT22;35050;51.316;5.994;2023-12-20T00:40:06;7.70;99.90
49224;DHT22;35050;51.316;5.994;2023-12-20T00:42:32;7.70;99.90
49224;DHT22;35050;51.316;5.994;2023-12-20T00:44:59;7.70;99.90
49224;DHT22;35050;51.316;5.994;2023-12-20T00:47:24;7.60;99.90
49224;DHT22;35050;51.316;5.994;2023-12-20T00:49:50;7.60;99.90
49224;DHT22;35050;51.316;5.994;2023-12-20T00:52:16;7.60;99.90
49224;DHT22;35050;51.316;5.994;2023-12-20T00:54:43;7.50;99.90
49224;DHT22;35050;51.316;5.994;2023-12-20T00:57:09;7.60;99.90
49224;DHT22;35050;51.316;5.994;2023-12-20T00:59:34;7.40;99.90
49224;DHT22;35050;51.316;5.994;2023-12-20T01:02:00;7.40;99.90
49224;DHT22;35050;51.316;5.994;2023-12-20T01:04:26;7.40;99.90
49224;DHT22;35050;51.316;5.994;2023-12-20T01:06:52;7.30;99.90
49224;DHT22;35050;51.316;5.994;2023-12-20T01:09:17;7.30;99.90
49224;DHT22;35050;51.316;5.994;2023-12-20T01:11:44;7.30;99.90
49224;DHT22;35050;51.316;5.994;2023-12-20T01:14:09;7.20;99.90
49224;DHT22;35050;51.316;5.994;2023-12-20T01:16:35;7.20;99.90
49224;DHT22;35050;51.316;5.994;2023-12-20T01:19:01;7.20;99.90
49224;DHT22;35050;51.316;5.994;2023-12-20T01:21:26;7.10;99.90
49224;DHT22;35050;51.316;5.994;2023-12-20T01:23:52;7.20;99.90
49224;DHT22;35050;51.316;5.994;2023-12-20T01:26:17;7.10;99.90
49224;DHT22;35050;51.316;5.994;2023-12-20T01:28:43;7.00;99.90
49224;DHT22;35050;51.316;5.994;2023-12-20T01:31:09;7.00;99.90
49224;DHT22;35050;51.316;5.994;2023-12-20T01:33:34;7.00;99.90
49224;DHT22;35050;51.316;5.994;2023-12-20T01:36:00;7.00;99.90
49224;DHT22;35050;51.316;5.994;2023-12-20T01:38:25;6.90;99.90
49224;DHT22;35050;51.316;5.994;2023-12-20T01:40:51;6.90;99.90
49224;DHT22;35050;51.316;5.994;2023-12-20T01:43:17;6.90;99.90
49224;DHT22;35050;51.316;5.994;2023-12-20T01:45:42;6.90;99.90
49224;DHT22;35050;51.316;5.994;2023-12-20T01:48:08;6.90;99.90
49224;DHT22;35050;51.316;5.994;2023-12-20T01:50:36;6.90;99.90
49224;DHT22;35050;51.316;5.994;2023-12-20T01:53:04;6.70;99.90
49224;DHT22;35050;51.316;5.994;2023-12-20T01:55:32;6.90;99.90
49224;DHT22;35050;51.316;5.994;2023-12-20T01:57:59;6.70;99.90
49224;DHT22;35050;51.316;5.994;2023-12-20T02:00:27;6.60;99.90
49224;DHT22;35050;51.316;5.994;2023-12-20T02:02:53;6.70;99.90
49224;DHT22;35050;51.316;5.994;2023-12-20T02:05:21;6.50;99.90
49224;DHT22;35050;51.316;5.994;2023-12-20T02:07:47;6.50;99.90
49224;DHT22;35050;51.316;5.994;2023-12-20T02:10:14;6.60;99.90
49224;DHT22;35050;51.316;5.994;2023-12-20T02:12:40;6.60;99.90
49224;DHT22;35050;51.316;5.994;2023-12-20T02:15:06;6.50;99.90
49224;DHT22;35050;51.316;5.994;2023-12-20T02:17:32;6.60;99.90
49224;DHT22;35050;51.316;5.994;2023-12-20T02:19:58;6.50;99.90
49224;DHT22;35050;51.316;5.994;2023-12-20T02:22:24;6.40;99.90
49224;DHT22;35050;51.316;5.994;2023-12-20T02:24:50;6.40;99.90
49224;DHT22;35050;51.316;5.994;2023-12-20T02:27:18;6.40;99.90
49224;DHT22;35050;51.316;5.994;2023-12-20T02:29:47;6.50;99.90
49224;DHT22;35050;51.316;5.994;2023-12-20T02:32:12;6.50;99.90
49224;DHT22;35050;51.316;5.994;2023-12-20T02:34:38;6.50;99.90
49224;DHT22;35050;51.316;5.994;2023-12-20T02:37:04;6.60;99.90
49224;DHT22;35050;51.316;5.994;2023-12-20T02:39:30;6.60;99.90
49224;DHT22;35050;51.316;5.994;2023-12-20T02:41:56;6.60;99.90
49224;DHT22;35050;51.316;5.994;2023-12-20T02:44:21;6.60;99.90
49224;DHT22;35050;51.316;5.994;2023-12-20T02:46:47;6.60;99.90
49224;DHT22;35050;51.316;5.994;2023-12-20T02:49:12;6.60;99.90
49224;DHT22;35050;51.316;5.994;2023-12-20T02:51:38;6.50;99.90
49224;DHT22;35050;51.316;5.994;2023-12-20T02:54:04;6.60;99.90
49224;DHT22;35050;51.316;5.994;2023-12-20T02:56:30;6.50;99.90
49224;DHT22;35050;51.316;5.994;2023-12-20T02:58:55;6.60;99.90
49224;DHT22;35050;51.316;5.994;2023-12-20T03:01:21;6.60;99.90
49224;DHT22;35050;51.316;5.994;2023-12-20T03:03:47;6.70;99.90
49224;DHT22;35050;51.316;5.994;2023-12-20T03:06:19;6.60;99.90
49224;DHT22;35050;51.316;5.994;2023-12-20T03:08:45;6.70;99.90
49224;DHT22;35050;51.316;5.994;2023-12-20T03:11:11;6.60;99.90
49224;DHT22;35050;51.316;5.994;2023-12-20T03:13:36;6.70;99.90
49224;DHT22;35050;51.316;5.994;2023-12-20T03:16:11;6.60;99.90
49224;DHT22;35050;51.316;5.994;2023-12-20T03:18:37;6.60;99.90
49224;DHT22;35050;51.316;5.994;2023-12-20T03:21:04;6.60;99.90
49224;DHT22;35050;51.316;5.994;2023-12-20T03:23:30;6.60;99.90
49224;DHT22;35050;51.316;5.994;2023-12-20T03:25:56;6.50;99.90
49224;DHT22;35050;51.316;5.994;2023-12-20T03:28:22;6.50;99.90
49224;DHT22;35050;51.316;5.994;2023-12-20T03:30:48;6.40;99.90
49224;DHT22;35050;51.316;5.994;2023-12-20T03:33:14;6.40;99.90
49224;DHT22;35050;51.316;5.994;2023-12-20T03:35:39;6.40;99.90
49224;DHT22;35050;51.316;5.994;2023-12-20T03:38:05;6.40;99.90
49224;DHT22;35050;51.316;5.994;2023-12-20T03:40:31;6.40;99.90
49224;DHT22;35050;51.316;5.994;2023-12-20T03:42:56;6.40;99.90
49224;DHT22;35050;51.316;5.994;2023-12-20T03:45:22;6.30;99.90
49224;DHT22;35050;51.316;5.994;2023-12-20T03:47:47;6.30;99.90
49224;DHT22;35050;51.316;5.994;2023-12-20T03:50:14;6.20;99.90
49224;DHT22;35050;51.316;5.994;2023-12-20T03:52:39;6.20;99.90
49224;DHT22;35050;51.316;5.994;2023-12-20T03:55:06;6.20;99.90
49224;DHT22;35050;51.316;5.994;2023-12-20T03:57:31;6.30;99.90
49224;DHT22;35050;51.316;5.994;2023-12-20T03:59:57;6.20;99.90
49224;DHT22;35050;51.316;5.994;2023-12-20T04:02:22;6.20;99.90
49224;DHT22;35050;51.316;5.994;2023-12-20T04:04:48;6.20;99.90
49224;DHT22;35050;51.316;5.994;2023-12-20T04:07:13;6.20;99.90
49224;DHT22;35050;51.316;5.994;2023-12-20T04:09:40;6.20;99.90
49224;DHT22;35050;51.316;5.994;2023-12-20T04:12:06;6.10;99.90
49224;DHT22;35050;51.316;5.994;2023-12-20T04:14:32;6.10;99.90
49224;DHT22;35050;51.316;5.994;2023-12-20T04:16:58;6.10;99.90
49224;DHT22;35050;51.316;5.994;2023-12-20T04:19:23;6.00;99.90
49224;DHT22;35050;51.316;5.994;2023-12-20T04:21:49;6.10;99.90
49224;DHT22;35050;51.316;5.994;2023-12-20T04:24:15;6.10;99.90
49224;DHT22;35050;51.316;5.994;2023-12-20T04:26:40;6.10;99.90
49224;DHT22;35050;51.316;5.994;2023-12-20T04:29:06;6.10;99.90
49224;DHT22;35050;51.316;5.994;2023-12-20T04:31:32;6.10;99.90
49224;DHT22;35050;51.316;5.994;2023-12-20T04:33:57;6.10;99.90
49224;DHT22;35050;51.316;5.994;2023-12-20T04:36:23;6.20;99.90
49224;DHT22;35050;51.316;5.994;2023-12-20T04:38:50;6.20;99.90
49224;DHT22;35050;51.316;5.994;2023-12-20T04:41:16;6.30;99.90
49224;DHT22;35050;51.316;5.994;2023-12-20T04:43:44;6.30;99.90
49224;DHT22;35050;51.316;5.994;2023-12-20T04:46:09;6.30;99.90
49224;DHT22;35050;51.316;5.994;2023-12-20T04:48:35;6.30;99.90
49224;DHT22;35050;51.316;5.994;2023-12-20T04:51:01;6.30;99.90
49224;DHT22;35050;51.316;5.994;2023-12-20T04:53:26;6.30;99.90
49224;DHT22;35050;51.316;5.994;2023-12-20T04:55:52;6.40;99.90
49224;DHT22;35050;51.316;5.994;2023-12-20T04:58:19;6.40;99.90
49224;DHT22;35050;51.316;5.994;2023-12-20T05:00:44;6.40;99.90
49224;DHT22;35050;51.316;5.994;2023-12-20T05:03:10;6.40;99.90
49224;DHT22;35050;51.316;5.994;2023-12-20T05:05:36;6.40;99.90
49224;DHT22;35050;51.316;5.994;2023-12-20T05:08:01;6.40;99.90
49224;DHT22;35050;51.316;5.994;2023-12-20T05:10:27;6.50;99.90
49224;DHT22;35050;51.316;5.994;2023-12-20T05:12:53;6.40;99.90
49224;DHT22;35050;51.316;5.994;2023-12-20T05:15:19;6.50;99.90
49224;DHT22;35050;51.316;5.994;2023-12-20T05:17:44;6.50;99.90
49224;DHT22;35050;51.316;5.994;2023-12-20T05:20:10;6.50;99.90
49224;DHT22;35050;51.316;5.994;2023-12-20T05:22:35;6.40;99.90
49224;DHT22;35050;51.316;5.994;2023-12-20T05:25:01;6.50;99.90
49224;DHT22;35050;51.316;5.994;2023-12-20T05:27:27;6.50;99.90
49224;DHT22;35050;51.316;5.994;2023-12-20T05:29:52;6.50;99.90
49224;DHT22;35050;51.316;5.994;2023-12-20T05:32:18;6.60;99.90
49224;DHT22;35050;51.316;5.994;2023-12-20T05:34:44;6.60;99.90
49224;DHT22;35050;51.316;5.994;2023-12-20T05:37:09;6.70;99.90
49224;DHT22;35050;51.316;5.994;2023-12-20T05:39:35;6.70;99.90
49224;DHT22;35050;51.316;5.994;2023-12-20T05:42:01;6.60;99.90
49224;DHT22;35050;51.316;5.994;2023-12-20T05:44:26;6.70;99.90
49224;DHT22;35050;51.316;5.994;2023-12-20T05:46:52;6.70;99.90
49224;DHT22;35050;51.316;5.994;2023-12-20T05:49:17;6.70;99.90
49224;DHT22;35050;51.316;5.994;2023-12-20T05:51:43;6.70;99.90
49224;DHT22;35050;51.316;5.994;2023-12-20T05:54:09;6.70;99.90
49224;DHT22;35050;51.316;5.994;2023-12-20T05:56:35;6.70;99.90
49224;DHT22;35050;51.316;5.994;2023-12-20T05:59:00;6.70;99.90
49224;DHT22;35050;51.316;5.994;2023-12-20T06:01:26;6.80;99.90
49224;DHT22;35050;51.316;5.994;2023-12-20T06:03:52;6.70;99.90
49224;DHT22;35050;51.316;5.994;2023-12-20T06:06:17;6.80;99.90
49224;DHT22;35050;51.316;5.994;2023-12-20T06:08:43;6.80;99.90
49224;DHT22;35050;51.316;5.994;2023-12-20T06:11:09;6.80;99.90
49224;DHT22;35050;51.316;5.994;2023-12-20T06:13:34;6.80;99.90
49224;DHT22;35050;51.316;5.994;2023-12-20T06:16:01;6.80;99.90
49224;DHT22;35050;51.316;5.994;2023-12-20T06:18:26;6.80;99.90
49224;DHT22;35050;51.316;5.994;2023-12-20T06:20:52;6.80;99.90
49224;DHT22;35050;51.316;5.994;2023-12-20T06:23:17;6.80;99.90
49224;DHT22;35050;51.316;5.994;2023-12-20T06:25:44;6.80;99.90
49224;DHT22;35050;51.316;5.994;2023-12-20T06:28:09;6.80;99.90
49224;DHT22;35050;51.316;5.994;2023-12-20T06:30:36;6.80;99.90
49224;DHT22;35050;51.316;5.994;2023-12-20T06:33:01;6.80;99.90
49224;DHT22;35050;51.316;5.994;2023-12-20T06:35:27;6.80;99.90
49224;DHT22;35050;51.316;5.994;2023-12-20T06:37:53;6.80;99.90
49224;DHT22;35050;51.316;5.994;2023-12-20T06:40:19;6.80;99.90
49224;DHT22;35050;51.316;5.994;2023-12-20T06:42:45;6.80;99.90
49224;DHT22;35050;51.316;5.994;2023-12-20T06:45:11;6.80;99.90
49224;DHT22;35050;51.316;5.994;2023-12-20T06:47:37;6.80;99.90
49224;DHT22;35050;51.316;5.994;2023-12-20T06:50:04;6.80;99.90
49224;DHT22;35050;51.316;5.994;2023-12-20T06:52:30;6.90;99.90
49224;DHT22;35050;51.316;5.994;2023-12-20T06:54:55;6.80;99.90
49224;DHT22;35050;51.316;5.994;2023-12-20T06:57:21;6.80;99.90
49224;DHT22;35050;51.316;5.994;2023-12-20T06:59:46;6.80;99.90
49224;DHT22;35050;51.316;5.994;2023-12-20T07:02:12;6.80;99.90
49224;DHT22;35050;51.316;5.994;2023-12-20T07:04:41;6.80;99.90
49224;DHT22;35050;51.316;5.994;2023-12-20T07:07:07;6.70;99.90
49224;DHT22;35050;51.316;5.994;2023-12-20T07:09:33;6.90;99.90
49224;DHT22;35050;51.316;5.994;2023-12-20T07:11:59;6.80;99.90
49224;DHT22;35050;51.316;5.994;2023-12-20T07:14:25;6.80;99.90
49224;DHT22;35050;51.316;5.994;2023-12-20T07:16:50;6.60;99.90
49224;DHT22;35050;51.316;5.994;2023-12-20T07:19:16;6.90;99.90
49224;DHT22;35050;51.316;5.994;2023-12-20T07:21:42;6.70;99.90
49224;DHT22;35050;51.316;5.994;2023-12-20T07:24:07;6.60;99.90
49224;DHT22;35050;51.316;5.994;2023-12-20T07:26:33;6.60;99.90
49224;DHT22;35050;51.316;5.994;2023-12-20T07:28:59;6.50;99.90
49224;DHT22;35050;51.316;5.994;2023-12-20T07:31:25;6.50;99.90
49224;DHT22;35050;51.316;5.994;2023-12-20T07:33:50;6.50;99.90
49224;DHT22;35050;51.316;5.994;2023-12-20T07:36:16;6.50;99.90
49224;DHT22;35050;51.316;5.994;2023-12-20T07:38:42;6.50;99.90
49224;DHT22;35050;51.316;5.994;2023-12-20T07:41:10;6.40;99.90
49224;DHT22;35050;51.316;5.994;2023-12-20T07:43:36;6.40;99.90
49224;DHT22;35050;51.316;5.994;2023-12-20T07:46:08;6.40;99.90
49224;DHT22;35050;51.316;5.994;2023-12-20T07:48:37;6.40;99.90
49224;DHT22;35050;51.316;5.994;2023-12-20T07:51:06;6.30;99.90
49224;DHT22;35050;51.316;5.994;2023-12-20T07:53:34;6.30;99.90
49224;DHT22;35050;51.316;5.994;2023-12-20T07:56:00;6.40;99.90
49224;DHT22;35050;51.316;5.994;2023-12-20T07:58:26;6.30;99.90
49224;DHT22;35050;51.316;5.994;2023-12-20T08:00:52;6.40;99.90
49224;DHT22;35050;51.316;5.994;2023-12-20T08:03:17;6.40;99.90
49224;DHT22;35050;51.316;5.994;2023-12-20T08:05:43;6.40;99.90
49224;DHT22;35050;51.316;5.994;2023-12-20T08:08:08;6.50;99.90
49224;DHT22;35050;51.316;5.994;2023-12-20T08:10:34;6.50;99.90
49224;DHT22;35050;51.316;5.994;2023-12-20T08:13:00;6.40;99.90
49224;DHT22;35050;51.316;5.994;2023-12-20T08:15:26;6.50;99.90
49224;DHT22;35050;51.316;5.994;2023-12-20T08:17:51;6.50;99.90
49224;DHT22;35050;51.316;5.994;2023-12-20T08:20:17;6.50;99.90
49224;DHT22;35050;51.316;5.994;2023-12-20T08:22:43;6.50;99.90
49224;DHT22;35050;51.316;5.994;2023-12-20T08:25:08;6.60;99.90
49224;DHT22;35050;51.316;5.994;2023-12-20T08:27:39;6.60;99.90
49224;DHT22;35050;51.316;5.994;2023-12-20T08:30:05;6.60;99.90
49224;DHT22;35050;51.316;5.994;2023-12-20T08:32:31;6.60;99.90
49224;DHT22;35050;51.316;5.994;2023-12-20T08:34:57;6.60;99.90
49224;DHT22;35050;51.316;5.994;2023-12-20T08:37:23;6.70;99.90
49224;DHT22;35050;51.316;5.994;2023-12-20T08:39:49;6.60;99.90
49224;DHT22;35050;51.316;5.994;2023-12-20T08:42:14;6.70;99.90
49224;DHT22;35050;51.316;5.994;2023-12-20T08:44:40;6.60;99.90
49224;DHT22;35050;51.316;5.994;2023-12-20T08:47:06;6.70;99.90
49224;DHT22;35050;51.316;5.994;2023-12-20T08:49:31;6.80;99.90
49224;DHT22;35050;51.316;5.994;2023-12-20T08:51:57;6.80;99.90
49224;DHT22;35050;51.316;5.994;2023-12-20T08:54:22;6.80;99.90
49224;DHT22;35050;51.316;5.994;2023-12-20T08:56:48;6.80;99.90
49224;DHT22;35050;51.316;5.994;2023-12-20T08:59:13;6.80;99.90
49224;DHT22;35050;51.316;5.994;2023-12-20T09:01:39;6.90;99.90
49224;DHT22;35050;51.316;5.994;2023-12-20T09:04:05;6.90;99.90
49224;DHT22;35050;51.316;5.994;2023-12-20T09:06:31;6.90;99.90
49224;DHT22;35050;51.316;5.994;2023-12-20T09:08:57;6.90;99.90
49224;DHT22;35050;51.316;5.994;2023-12-20T09:11:23;7.00;99.90
49224;DHT22;35050;51.316;5.994;2023-12-20T09:13:48;7.00;99.90
49224;DHT22;35050;51.316;5.994;2023-12-20T09:16:14;7.00;99.90
49224;DHT22;35050;51.316;5.994;2023-12-20T09:18:41;7.10;99.90
49224;DHT22;35050;51.316;5.994;2023-12-20T09:21:07;7.00;99.90
49224;DHT22;35050;51.316;5.994;2023-12-20T09:23:32;7.10;99.90
49224;DHT22;35050;51.316;5.994;2023-12-20T09:25:58;7.10;99.90
49224;DHT22;35050;51.316;5.994;2023-12-20T09:28:24;7.20;99.90
49224;DHT22;35050;51.316;5.994;2023-12-20T09:30:49;7.20;99.90
49224;DHT22;35050;51.316;5.994;2023-12-20T09:33:15;7.20;99.90
49224;DHT22;35050;51.316;5.994;2023-12-20T09:35:42;7.20;99.90
49224;DHT22;35050;51.316;5.994;2023-12-20T09:38:07;7.20;99.90
49224;DHT22;35050;51.316;5.994;2023-12-20T09:40:35;7.20;99.90
49224;DHT22;35050;51.316;5.994;2023-12-20T09:43:10;7.30;99.90
49224;DHT22;35050;51.316;5.994;2023-12-20T09:45:36;7.30;99.90
49224;DHT22;35050;51.316;5.994;2023-12-20T09:48:03;7.20;99.90
49224;DHT22;35050;51.316;5.994;2023-12-20T09:50:30;7.20;99.90
49224;DHT22;35050;51.316;5.994;2023-12-20T09:52:58;7.20;99.90
49224;DHT22;35050;51.316;5.994;2023-12-20T09:55:27;7.20;99.90
49224;DHT22;35050;51.316;5.994;2023-12-20T09:57:53;7.20;99.90
49224;DHT22;35050;51.316;5.994;2023-12-20T10:00:19;7.20;99.90
49224;DHT22;35050;51.316;5.994;2023-12-20T10:02:57;7.30;99.90
49224;DHT22;35050;51.316;5.994;2023-12-20T10:05:28;7.30;99.90
49224;DHT22;35050;51.316;5.994;2023-12-20T10:07:54;7.20;99.90
49224;DHT22;35050;51.316;5.994;2023-12-20T10:10:20;7.20;99.90
49224;DHT22;35050;51.316;5.994;2023-12-20T10:13:14;7.60;99.90
49224;DHT22;35050;51.316;5.994;2023-12-20T10:15:40;7.40;99.90
49224;DHT22;35050;51.316;5.994;2023-12-20T10:18:06;7.40;99.90
49224;DHT22;35050;51.316;5.994;2023-12-20T10:20:32;7.40;99.90
49224;DHT22;35050;51.316;5.994;2023-12-20T10:22:59;7.40;99.90
49224;DHT22;35050;51.316;5.994;2023-12-20T10:25:25;7.40;99.90
49224;DHT22;35050;51.316;5.994;2023-12-20T10:28:12;7.40;99.90
49224;DHT22;35050;51.316;5.994;2023-12-20T10:30:38;7.40;99.90
49224;DHT22;35050;51.316;5.994;2023-12-20T10:33:06;7.40;99.90
49224;DHT22;35050;51.316;5.994;2023-12-20T10:35:32;7.50;99.90
49224;DHT22;35050;51.316;5.994;2023-12-20T10:38:02;7.50;99.90
49224;DHT22;35050;51.316;5.994;2023-12-20T10:40:29;7.50;99.90
49224;DHT22;35050;51.316;5.994;2023-12-20T10:42:56;7.50;99.90
49224;DHT22;35050;51.316;5.994;2023-12-20T10:45:23;7.50;99.90
49224;DHT22;35050;51.316;5.994;2023-12-20T10:47:50;7.50;99.90
49224;DHT22;35050;51.316;5.994;2023-12-20T10:50:16;7.50;99.90
49224;DHT22;35050;51.316;5.994;2023-12-20T10:52:44;7.50;99.90
49224;DHT22;35050;51.316;5.994;2023-12-20T10:55:11;7.50;99.90
49224;DHT22;35050;51.316;5.994;2023-12-20T10:57:37;7.50;99.90
49224;DHT22;35050;51.316;5.994;2023-12-20T11:00:02;7.50;99.90
49224;DHT22;35050;51.316;5.994;2023-12-20T11:02:39;7.50;99.90
49224;DHT22;35050;51.316;5.994;2023-12-20T11:05:43;7.60;99.90
49224;DHT22;35050;51.316;5.994;2023-12-20T11:10:49;7.60;99.90
49224;DHT22;35050;51.316;5.994;2023-12-20T11:13:21;7.60;99.90
49224;DHT22;35050;51.316;5.994;2023-12-20T11:15:49;7.60;99.90
49224;DHT22;35050;51.316;5.994;2023-12-20T11:18:15;7.70;99.90
49224;DHT22;35050;51.316;5.994;2023-12-20T11:20:41;7.70;99.90
49224;DHT22;35050;51.316;5.994;2023-12-20T11:23:08;7.70;99.90
49224;DHT22;35050;51.316;5.994;2023-12-20T11:25:48;7.70;99.90
49224;DHT22;35050;51.316;5.994;2023-12-20T11:28:14;7.70;99.90
49224;DHT22;35050;51.316;5.994;2023-12-20T11:30:58;7.70;99.90
49224;DHT22;35050;51.316;5.994;2023-12-20T11:33:29;7.80;99.90
49224;DHT22;35050;51.316;5.994;2023-12-20T11:35:59;7.80;99.90
49224;DHT22;35050;51.316;5.994;2023-12-20T11:38:35;7.80;99.90
49224;DHT22;35050;51.316;5.994;2023-12-20T11:41:01;7.80;99.90
49224;DHT22;35050;51.316;5.994;2023-12-20T11:43:35;7.90;99.90
49224;DHT22;35050;51.316;5.994;2023-12-20T11:48:32;7.80;99.90
49224;DHT22;35050;51.316;5.994;2023-12-20T11:50:58;7.90;99.90
49224;DHT22;35050;51.316;5.994;2023-12-20T11:53:23;7.90;99.90
49224;DHT22;35050;51.316;5.994;2023-12-20T11:55:49;7.80;99.90
49224;DHT22;35050;51.316;5.994;2023-12-20T11:58:15;7.80;99.90
49224;DHT22;35050;51.316;5.994;2023-12-20T12:00:42;7.90;99.90
49224;DHT22;35050;51.316;5.994;2023-12-20T12:03:14;8.00;99.90
49224;DHT22;35050;51.316;5.994;2023-12-20T12:05:41;7.90;99.90
49224;DHT22;35050;51.316;5.994;2023-12-20T12:08:06;7.90;99.90
49224;DHT22;35050;51.316;5.994;2023-12-20T12:10:33;7.90;99.90
49224;DHT22;35050;51.316;5.994;2023-12-20T12:12:59;8.00;99.90
49224;DHT22;35050;51.316;5.994;2023-12-20T12:15:26;8.00;99.90
49224;DHT22;35050;51.316;5.994;2023-12-20T12:17:56;7.90;99.90
49224;DHT22;35050;51.316;5.994;2023-12-20T12:20:22;7.80;99.90
49224;DHT22;35050;51.316;5.994;2023-12-20T12:23:01;7.90;99.90
49224;DHT22;35050;51.316;5.994;2023-12-20T12:25:28;7.80;99.90
49224;DHT22;35050;51.316;5.994;2023-12-20T12:27:54;7.90;99.90
49224;DHT22;35050;51.316;5.994;2023-12-20T12:30:20;7.90;99.90
49224;DHT22;35050;51.316;5.994;2023-12-20T12:32:47;7.90;99.90
49224;DHT22;35050;51.316;5.994;2023-12-20T12:35:14;8.70;99.90
49224;DHT22;35050;51.316;5.994;2023-12-20T12:37:40;8.10;99.90
49224;DHT22;35050;51.316;5.994;2023-12-20T12:40:16;8.10;99.90
49224;DHT22;35050;51.316;5.994;2023-12-20T12:42:44;8.10;99.90
49224;DHT22;35050;51.316;5.994;2023-12-20T12:45:10;8.10;99.90
49224;DHT22;35050;51.316;5.994;2023-12-20T12:47:40;8.10;99.90
49224;DHT22;35050;51.316;5.994;2023-12-20T12:50:06;8.00;99.90
49224;DHT22;35050;51.316;5.994;2023-12-20T12:52:31;8.00;99.90
49224;DHT22;35050;51.316;5.994;2023-12-20T12:54:57;8.10;99.90
49224;DHT22;35050;51.316;5.994;2023-12-20T12:57:23;8.00;99.90
49224;DHT22;35050;51.316;5.994;2023-12-20T12:59:49;8.00;99.90
49224;DHT22;35050;51.316;5.994;2023-12-20T13:02:15;8.00;99.90
49224;DHT22;35050;51.316;5.994;2023-12-20T13:04:42;8.00;99.90
49224;DHT22;35050;51.316;5.994;2023-12-20T13:07:08;8.00;99.90
49224;DHT22;35050;51.316;5.994;2023-12-20T13:09:36;8.00;99.90
49224;DHT22;35050;51.316;5.994;2023-12-20T13:12:02;8.00;99.90
49224;DHT22;35050;51.316;5.994;2023-12-20T13:14:31;7.90;99.90
49224;DHT22;35050;51.316;5.994;2023-12-20T13:16:58;8.00;99.90
49224;DHT22;35050;51.316;5.994;2023-12-20T13:19:24;8.10;99.90
49224;DHT22;35050;51.316;5.994;2023-12-20T13:21:49;8.10;99.90
49224;DHT22;35050;51.316;5.994;2023-12-20T13:24:15;8.10;99.90
49224;DHT22;35050;51.316;5.994;2023-12-20T13:26:40;8.00;99.90
49224;DHT22;35050;51.316;5.994;2023-12-20T13:29:06;8.10;99.90
49224;DHT22;35050;51.316;5.994;2023-12-20T13:31:32;8.00;99.90
49224;DHT22;35050;51.316;5.994;2023-12-20T13:33:58;8.00;99.90
49224;DHT22;35050;51.316;5.994;2023-12-20T13:36:24;8.10;99.90
49224;DHT22;35050;51.316;5.994;2023-12-20T13:38:50;8.10;99.90
49224;DHT22;35050;51.316;5.994;2023-12-20T13:41:15;8.10;99.90
49224;DHT22;35050;51.316;5.994;2023-12-20T13:43:41;8.10;99.90
49224;DHT22;35050;51.316;5.994;2023-12-20T13:46:08;8.10;99.90
49224;DHT22;35050;51.316;5.994;2023-12-20T13:48:33;8.10;99.90
49224;DHT22;35050;51.316;5.994;2023-12-20T13:50:59;8.10;99.90
49224;DHT22;35050;51.316;5.994;2023-12-20T13:53:25;8.10;99.90
49224;DHT22;35050;51.316;5.994;2023-12-20T13:55:51;8.10;99.90
49224;DHT22;35050;51.316;5.994;2023-12-20T13:58:17;8.10;99.90
49224;DHT22;35050;51.316;5.994;2023-12-20T14:00:42;8.20;99.90
49224;DHT22;35050;51.316;5.994;2023-12-20T14:03:08;8.20;99.90
49224;DHT22;35050;51.316;5.994;2023-12-20T14:05:35;8.10;99.90
49224;DHT22;35050;51.316;5.994;2023-12-20T14:08:01;8.10;99.90
49224;DHT22;35050;51.316;5.994;2023-12-20T14:10:26;8.20;99.90
49224;DHT22;35050;51.316;5.994;2023-12-20T14:12:53;8.20;99.90
49224;DHT22;35050;51.316;5.994;2023-12-20T14:15:19;9.30;99.90
49224;DHT22;35050;51.316;5.994;2023-12-20T14:17:44;8.90;99.90
49224;DHT22;35050;51.316;5.994;2023-12-20T14:20:10;8.50;99.90
49224;DHT22;35050;51.316;5.994;2023-12-20T14:22:38;8.40;99.90
49224;DHT22;35050;51.316;5.994;2023-12-20T14:25:10;8.20;99.90
49224;DHT22;35050;51.316;5.994;2023-12-20T14:27:37;8.20;99.90
49224;DHT22;35050;51.316;5.994;2023-12-20T14:30:03;8.20;99.90
49224;DHT22;35050;51.316;5.994;2023-12-20T14:32:29;8.20;99.90
49224;DHT22;35050;51.316;5.994;2023-12-20T14:34:55;8.20;99.90
49224;DHT22;35050;51.316;5.994;2023-12-20T14:37:20;8.20;99.90
49224;DHT22;35050;51.316;5.994;2023-12-20T14:39:46;8.20;99.90
49224;DHT22;35050;51.316;5.994;2023-12-20T14:42:11;8.20;99.90
49224;DHT22;35050;51.316;5.994;2023-12-20T14:44:42;8.10;99.90
49224;DHT22;35050;51.316;5.994;2023-12-20T14:47:08;8.20;99.90
49224;DHT22;35050;51.316;5.994;2023-12-20T14:49:33;8.20;99.90
49224;DHT22;35050;51.316;5.994;2023-12-20T14:51:59;8.20;99.90
49224;DHT22;35050;51.316;5.994;2023-12-20T14:54:25;8.20;99.90
49224;DHT22;35050;51.316;5.994;2023-12-20T14:56:51;8.20;99.90
49224;DHT22;35050;51.316;5.994;2023-12-20T14:59:17;8.20;99.90
49224;DHT22;35050;51.316;5.994;2023-12-20T15:01:44;8.20;99.90
49224;DHT22;35050;51.316;5.994;2023-12-20T15:04:10;8.20;99.90
49224;DHT22;35050;51.316;5.994;2023-12-20T15:06:36;8.20;99.90
49224;DHT22;35050;51.316;5.994;2023-12-20T15:09:02;8.20;99.90
49224;DHT22;35050;51.316;5.994;2023-12-20T15:11:33;8.10;99.90
49224;DHT22;35050;51.316;5.994;2023-12-20T15:13:58;8.20;99.90
49224;DHT22;35050;51.316;5.994;2023-12-20T15:16:25;8.20;99.90
49224;DHT22;35050;51.316;5.994;2023-12-20T15:18:51;8.20;99.90
49224;DHT22;35050;51.316;5.994;2023-12-20T15:21:19;8.20;99.90
49224;DHT22;35050;51.316;5.994;2023-12-20T15:23:44;8.20;99.90
49224;DHT22;35050;51.316;5.994;2023-12-20T15:26:21;8.20;99.90
49224;DHT22;35050;51.316;5.994;2023-12-20T15:28:46;8.20;99.90
49224;DHT22;35050;51.316;5.994;2023-12-20T15:31:12;8.30;99.90
49224;DHT22;35050;51.316;5.994;2023-12-20T15:33:39;8.20;99.90
49224;DHT22;35050;51.316;5.994;2023-12-20T15:36:05;8.20;99.90
49224;DHT22;35050;51.316;5.994;2023-12-20T15:38:31;8.20;99.90
49224;DHT22;35050;51.316;5.994;2023-12-20T15:40:57;8.20;99.90
49224;DHT22;35050;51.316;5.994;2023-12-20T15:43:22;8.30;99.90
49224;DHT22;35050;51.316;5.994;2023-12-20T15:45:48;8.30;99.90